Terminal Aerodrome Forecast
Issued by NWS Jackson, KY

Home | Current Version | Previous Version | Text Only | Print | Product List | Glossary On
Versions: 1 2 3 4 5 6 7 8 9 10 11 12 13
000
FTUS43 KJKL 240540
TAFJKL
TAF
KJKL 240540Z 2406/2506 VRB05KT P6SM VCSH OVC070
     FM241000 VRB05KT 6SM -SHRA OVC050
     FM241700 VRB03KT 6SM -SHRA BR OVC030
     FM242000 VRB03KT 3SM -SHRA BR VCTS OVC020CB
     FM242300 VRB03KT 4SM BR VCSH OVC015
     FM250200 VRB03KT 3SM BR VCSH OVC007=

USA.gov is the U.S. government's official web portal to all federal, state and local government web resources and services.